sensor_id;sensor_type;location;lat;lon;timestamp;P1;durP1;ratioP1;P2;durP2;ratioP2
65853;SDS011;52627;48.838;2.402;2023-10-09T00:00:15;15.60;;;7.70;;
65853;SDS011;52627;48.838;2.402;2023-10-09T00:03:02;15.60;;;8.10;;
65853;SDS011;52627;48.838;2.402;2023-10-09T00:05:32;16.60;;;8.20;;
65853;SDS011;52627;48.838;2.402;2023-10-09T00:08:17;17.40;;;8.60;;
65853;SDS011;52627;48.838;2.402;2023-10-09T00:10:59;14.80;;;8.50;;
65853;SDS011;52627;48.838;2.402;2023-10-09T00:13:48;16.10;;;8.10;;
65853;SDS011;52627;48.838;2.402;2023-10-09T00:16:21;13.10;;;7.40;;
65853;SDS011;52627;48.838;2.402;2023-10-09T00:19:11;15.80;;;8.30;;
65853;SDS011;52627;48.838;2.402;2023-10-09T00:21:45;13.90;;;7.60;;
65853;SDS011;52627;48.838;2.402;2023-10-09T00:24:14;17.20;;;8.10;;
65853;SDS011;52627;48.838;2.402;2023-10-09T00:26:53;15.10;;;8.20;;
65853;SDS011;52627;48.838;2.402;2023-10-09T00:29:30;14.40;;;7.70;;
65853;SDS011;52627;48.838;2.402;2023-10-09T00:34:40;12.90;;;7.70;;
65853;SDS011;52627;48.838;2.402;2023-10-09T00:37:09;19.60;;;9.40;;
65853;SDS011;52627;48.838;2.402;2023-10-09T00:39:44;19.10;;;9.10;;
65853;SDS011;52627;48.838;2.402;2023-10-09T00:42:11;14.00;;;8.40;;
65853;SDS011;52627;48.838;2.402;2023-10-09T00:44:41;13.00;;;7.70;;
65853;SDS011;52627;48.838;2.402;2023-10-09T00:47:12;15.40;;;8.60;;
65853;SDS011;52627;48.838;2.402;2023-10-09T00:49:52;15.70;;;8.10;;
65853;SDS011;52627;48.838;2.402;2023-10-09T00:52:30;14.10;;;8.10;;
65853;SDS011;52627;48.838;2.402;2023-10-09T00:55:05;13.50;;;8.20;;
65853;SDS011;52627;48.838;2.402;2023-10-09T00:57:44;19.40;;;8.30;;
65853;SDS011;52627;48.838;2.402;2023-10-09T01:00:26;13.40;;;8.10;;
65853;SDS011;52627;48.838;2.402;2023-10-09T01:03:15;16.00;;;8.90;;
65853;SDS011;52627;48.838;2.402;2023-10-09T01:05:48;15.10;;;7.80;;
65853;SDS011;52627;48.838;2.402;2023-10-09T01:08:28;18.70;;;8.70;;
65853;SDS011;52627;48.838;2.402;2023-10-09T01:11:02;16.30;;;7.80;;
65853;SDS011;52627;48.838;2.402;2023-10-09T01:13:49;13.60;;;8.10;;
65853;SDS011;52627;48.838;2.402;2023-10-09T01:16:18;15.80;;;9.00;;
65853;SDS011;52627;48.838;2.402;2023-10-09T01:18:51;14.90;;;8.30;;
65853;SDS011;52627;48.838;2.402;2023-10-09T01:21:20;14.80;;;8.50;;
65853;SDS011;52627;48.838;2.402;2023-10-09T01:23:55;15.00;;;8.20;;
65853;SDS011;52627;48.838;2.402;2023-10-09T01:26:37;15.80;;;8.50;;
65853;SDS011;52627;48.838;2.402;2023-10-09T01:29:23;15.90;;;9.10;;
65853;SDS011;52627;48.838;2.402;2023-10-09T01:31:56;16.40;;;8.30;;
65853;SDS011;52627;48.838;2.402;2023-10-09T01:34:32;13.90;;;8.40;;
65853;SDS011;52627;48.838;2.402;2023-10-09T01:37:30;16.50;;;8.80;;
65853;SDS011;52627;48.838;2.402;2023-10-09T01:39:59;15.50;;;9.10;;
65853;SDS011;52627;48.838;2.402;2023-10-09T01:42:42;13.40;;;8.10;;
65853;SDS011;52627;48.838;2.402;2023-10-09T01:45:13;14.60;;;8.80;;
65853;SDS011;52627;48.838;2.402;2023-10-09T01:47:48;15.50;;;8.60;;
65853;SDS011;52627;48.838;2.402;2023-10-09T01:50:24;21.00;;;8.50;;
65853;SDS011;52627;48.838;2.402;2023-10-09T01:52:59;15.50;;;8.80;;
65853;SDS011;52627;48.838;2.402;2023-10-09T01:55:30;16.10;;;8.70;;
65853;SDS011;52627;48.838;2.402;2023-10-09T01:58:03;14.00;;;8.10;;
65853;SDS011;52627;48.838;2.402;2023-10-09T02:00:47;16.80;;;8.20;;
65853;SDS011;52627;48.838;2.402;2023-10-09T02:03:22;15.10;;;8.40;;
65853;SDS011;52627;48.838;2.402;2023-10-09T02:05:55;16.30;;;9.40;;
65853;SDS011;52627;48.838;2.402;2023-10-09T02:08:30;13.50;;;8.50;;
65853;SDS011;52627;48.838;2.402;2023-10-09T02:11:02;16.00;;;8.00;;
65853;SDS011;52627;48.838;2.402;2023-10-09T02:13:30;16.90;;;8.30;;
65853;SDS011;52627;48.838;2.402;2023-10-09T02:16:02;15.40;;;8.30;;
65853;SDS011;52627;48.838;2.402;2023-10-09T02:18:56;13.70;;;8.10;;
65853;SDS011;52627;48.838;2.402;2023-10-09T02:21:23;15.50;;;9.30;;
65853;SDS011;52627;48.838;2.402;2023-10-09T02:24:02;18.90;;;8.90;;
65853;SDS011;52627;48.838;2.402;2023-10-09T02:26:37;15.40;;;8.50;;
65853;SDS011;52627;48.838;2.402;2023-10-09T02:29:07;14.70;;;7.50;;
65853;SDS011;52627;48.838;2.402;2023-10-09T02:31:41;13.10;;;8.10;;
65853;SDS011;52627;48.838;2.402;2023-10-09T02:34:15;16.50;;;9.70;;
65853;SDS011;52627;48.838;2.402;2023-10-09T02:36:44;13.50;;;8.20;;
65853;SDS011;52627;48.838;2.402;2023-10-09T02:39:17;15.20;;;8.70;;
65853;SDS011;52627;48.838;2.402;2023-10-09T02:42:00;14.50;;;8.20;;
65853;SDS011;52627;48.838;2.402;2023-10-09T02:44:48;17.70;;;7.50;;
65853;SDS011;52627;48.838;2.402;2023-10-09T02:47:19;15.60;;;8.30;;
65853;SDS011;52627;48.838;2.402;2023-10-09T02:50:00;13.60;;;8.70;;
65853;SDS011;52627;48.838;2.402;2023-10-09T02:52:35;14.90;;;8.10;;
65853;SDS011;52627;48.838;2.402;2023-10-09T02:55:08;12.80;;;7.00;;
65853;SDS011;52627;48.838;2.402;2023-10-09T02:57:44;14.60;;;8.50;;
65853;SDS011;52627;48.838;2.402;2023-10-09T03:00:13;14.10;;;7.60;;
65853;SDS011;52627;48.838;2.402;2023-10-09T03:02:47;11.40;;;7.30;;
65853;SDS011;52627;48.838;2.402;2023-10-09T03:05:18;13.40;;;7.60;;
65853;SDS011;52627;48.838;2.402;2023-10-09T03:07:46;14.40;;;7.90;;
65853;SDS011;52627;48.838;2.402;2023-10-09T03:10:13;13.70;;;6.80;;
65853;SDS011;52627;48.838;2.402;2023-10-09T03:12:41;15.50;;;7.70;;
65853;SDS011;52627;48.838;2.402;2023-10-09T03:15:10;16.20;;;7.90;;
65853;SDS011;52627;48.838;2.402;2023-10-09T03:17:39;12.40;;;7.30;;
65853;SDS011;52627;48.838;2.402;2023-10-09T03:22:41;15.00;;;6.80;;
65853;SDS011;52627;48.838;2.402;2023-10-09T03:25:10;12.90;;;7.10;;
65853;SDS011;52627;48.838;2.402;2023-10-09T03:27:44;15.70;;;7.10;;
65853;SDS011;52627;48.838;2.402;2023-10-09T03:30:17;12.40;;;7.60;;
65853;SDS011;52627;48.838;2.402;2023-10-09T03:32:52;13.20;;;7.40;;
65853;SDS011;52627;48.838;2.402;2023-10-09T03:35:21;16.00;;;7.50;;
65853;SDS011;52627;48.838;2.402;2023-10-09T03:37:56;13.80;;;7.50;;
65853;SDS011;52627;48.838;2.402;2023-10-09T03:40:28;13.90;;;7.50;;
65853;SDS011;52627;48.838;2.402;2023-10-09T03:42:56;13.70;;;7.40;;
65853;SDS011;52627;48.838;2.402;2023-10-09T03:45:24;11.70;;;7.40;;
65853;SDS011;52627;48.838;2.402;2023-10-09T03:47:56;14.30;;;7.40;;
65853;SDS011;52627;48.838;2.402;2023-10-09T03:50:43;13.20;;;7.20;;
65853;SDS011;52627;48.838;2.402;2023-10-09T03:53:10;10.80;;;7.00;;
65853;SDS011;52627;48.838;2.402;2023-10-09T03:55:40;12.60;;;7.00;;
65853;SDS011;52627;48.838;2.402;2023-10-09T03:58:09;13.40;;;7.20;;
65853;SDS011;52627;48.838;2.402;2023-10-09T04:00:39;12.80;;;7.40;;
65853;SDS011;52627;48.838;2.402;2023-10-09T04:03:15;14.40;;;8.10;;
65853;SDS011;52627;48.838;2.402;2023-10-09T04:05:43;14.00;;;7.80;;
65853;SDS011;52627;48.838;2.402;2023-10-09T04:08:12;12.30;;;7.60;;
65853;SDS011;52627;48.838;2.402;2023-10-09T04:10:56;14.70;;;7.50;;
65853;SDS011;52627;48.838;2.402;2023-10-09T04:13:33;14.80;;;7.90;;
65853;SDS011;52627;48.838;2.402;2023-10-09T04:16:02;15.00;;;8.00;;
65853;SDS011;52627;48.838;2.402;2023-10-09T04:18:54;13.90;;;7.40;;
65853;SDS011;52627;48.838;2.402;2023-10-09T04:21:25;16.30;;;8.70;;
65853;SDS011;52627;48.838;2.402;2023-10-09T04:24:07;13.60;;;7.70;;
65853;SDS011;52627;48.838;2.402;2023-10-09T04:26:43;13.90;;;8.00;;
65853;SDS011;52627;48.838;2.402;2023-10-09T04:29:16;21.30;;;8.00;;
65853;SDS011;52627;48.838;2.402;2023-10-09T04:32:03;12.70;;;7.70;;
65853;SDS011;52627;48.838;2.402;2023-10-09T04:34:34;13.60;;;7.50;;
65853;SDS011;52627;48.838;2.402;2023-10-09T04:37:02;13.90;;;8.20;;
65853;SDS011;52627;48.838;2.402;2023-10-09T04:39:42;16.90;;;7.60;;
65853;SDS011;52627;48.838;2.402;2023-10-09T04:42:16;12.40;;;7.50;;
65853;SDS011;52627;48.838;2.402;2023-10-09T04:45:08;16.30;;;8.00;;
65853;SDS011;52627;48.838;2.402;2023-10-09T04:47:39;13.20;;;7.90;;
65853;SDS011;52627;48.838;2.402;2023-10-09T04:50:17;15.30;;;7.90;;
65853;SDS011;52627;48.838;2.402;2023-10-09T04:52:44;16.90;;;8.80;;
65853;SDS011;52627;48.838;2.402;2023-10-09T04:55:12;14.70;;;7.30;;
65853;SDS011;52627;48.838;2.402;2023-10-09T04:57:47;14.40;;;7.60;;
65853;SDS011;52627;48.838;2.402;2023-10-09T05:00:29;13.20;;;7.30;;
65853;SDS011;52627;48.838;2.402;2023-10-09T05:03:01;14.30;;;7.70;;
65853;SDS011;52627;48.838;2.402;2023-10-09T05:05:40;13.00;;;7.80;;
65853;SDS011;52627;48.838;2.402;2023-10-09T05:08:16;14.80;;;7.50;;
65853;SDS011;52627;48.838;2.402;2023-10-09T05:11:01;12.40;;;6.70;;
65853;SDS011;52627;48.838;2.402;2023-10-09T05:13:33;14.90;;;7.50;;
65853;SDS011;52627;48.838;2.402;2023-10-09T05:16:10;14.00;;;7.50;;
65853;SDS011;52627;48.838;2.402;2023-10-09T05:19:03;15.00;;;8.00;;
65853;SDS011;52627;48.838;2.402;2023-10-09T05:21:38;13.20;;;6.90;;
65853;SDS011;52627;48.838;2.402;2023-10-09T05:24:11;17.60;;;7.30;;
65853;SDS011;52627;48.838;2.402;2023-10-09T05:26:48;14.90;;;6.90;;
65853;SDS011;52627;48.838;2.402;2023-10-09T05:32:17;14.50;;;7.20;;
65853;SDS011;52627;48.838;2.402;2023-10-09T05:34:57;15.60;;;7.60;;
65853;SDS011;52627;48.838;2.402;2023-10-09T05:37:30;12.90;;;7.80;;
65853;SDS011;52627;48.838;2.402;2023-10-09T05:40:14;16.40;;;8.30;;
65853;SDS011;52627;48.838;2.402;2023-10-09T05:42:46;13.80;;;7.40;;
65853;SDS011;52627;48.838;2.402;2023-10-09T05:45:28;15.20;;;7.70;;
65853;SDS011;52627;48.838;2.402;2023-10-09T05:48:18;14.70;;;7.00;;
65853;SDS011;52627;48.838;2.402;2023-10-09T05:50:46;14.60;;;8.00;;
65853;SDS011;52627;48.838;2.402;2023-10-09T05:53:34;17.00;;;8.90;;
65853;SDS011;52627;48.838;2.402;2023-10-09T05:56:13;24.40;;;10.80;;
65853;SDS011;52627;48.838;2.402;2023-10-09T05:58:59;22.40;;;10.70;;
65853;SDS011;52627;48.838;2.402;2023-10-09T06:01:45;16.90;;;8.60;;
65853;SDS011;52627;48.838;2.402;2023-10-09T06:04:32;15.70;;;8.20;;
65853;SDS011;52627;48.838;2.402;2023-10-09T06:07:22;15.80;;;8.90;;
65853;SDS011;52627;48.838;2.402;2023-10-09T06:10:08;16.90;;;8.10;;
65853;SDS011;52627;48.838;2.402;2023-10-09T06:12:47;16.50;;;8.10;;
65853;SDS011;52627;48.838;2.402;2023-10-09T06:15:21;14.30;;;8.60;;
65853;SDS011;52627;48.838;2.402;2023-10-09T06:18:26;16.50;;;8.90;;
65853;SDS011;52627;48.838;2.402;2023-10-09T06:21:09;17.00;;;9.20;;
65853;SDS011;52627;48.838;2.402;2023-10-09T06:23:55;18.40;;;10.00;;
65853;SDS011;52627;48.838;2.402;2023-10-09T06:26:53;19.00;;;9.10;;
65853;SDS011;52627;48.838;2.402;2023-10-09T06:29:52;20.10;;;9.00;;
65853;SDS011;52627;48.838;2.402;2023-10-09T06:32:47;15.40;;;8.10;;
65853;SDS011;52627;48.838;2.402;2023-10-09T06:35:24;18.30;;;9.20;;
65853;SDS011;52627;48.838;2.402;2023-10-09T06:37:58;18.70;;;9.00;;
65853;SDS011;52627;48.838;2.402;2023-10-09T06:40:47;18.60;;;8.40;;
65853;SDS011;52627;48.838;2.402;2023-10-09T06:43:34;18.00;;;8.80;;
65853;SDS011;52627;48.838;2.402;2023-10-09T06:46:04;15.60;;;8.10;;
65853;SDS011;52627;48.838;2.402;2023-10-09T06:48:57;15.60;;;8.70;;
65853;SDS011;52627;48.838;2.402;2023-10-09T06:51:25;18.50;;;9.00;;
65853;SDS011;52627;48.838;2.402;2023-10-09T06:53:56;15.00;;;8.50;;
65853;SDS011;52627;48.838;2.402;2023-10-09T06:56:30;16.50;;;9.30;;
65853;SDS011;52627;48.838;2.402;2023-10-09T06:59:05;15.80;;;8.30;;
65853;SDS011;52627;48.838;2.402;2023-10-09T07:01:59;17.60;;;8.50;;
65853;SDS011;52627;48.838;2.402;2023-10-09T07:04:51;17.50;;;9.00;;
65853;SDS011;52627;48.838;2.402;2023-10-09T07:07:42;18.90;;;9.10;;
65853;SDS011;52627;48.838;2.402;2023-10-09T07:10:19;15.40;;;8.40;;
65853;SDS011;52627;48.838;2.402;2023-10-09T07:15:30;21.80;;;9.30;;
65853;SDS011;52627;48.838;2.402;2023-10-09T07:18:16;18.00;;;8.80;;
65853;SDS011;52627;48.838;2.402;2023-10-09T07:20:47;19.10;;;8.80;;
65853;SDS011;52627;48.838;2.402;2023-10-09T07:23:27;17.60;;;9.10;;
65853;SDS011;52627;48.838;2.402;2023-10-09T07:26:28;21.20;;;9.30;;
65853;SDS011;52627;48.838;2.402;2023-10-09T07:29:05;17.10;;;8.50;;
65853;SDS011;52627;48.838;2.402;2023-10-09T07:32:03;18.40;;;9.50;;
65853;SDS011;52627;48.838;2.402;2023-10-09T07:34:44;20.70;;;10.30;;
65853;SDS011;52627;48.838;2.402;2023-10-09T07:37:27;15.60;;;8.80;;
65853;SDS011;52627;48.838;2.402;2023-10-09T07:40:02;21.00;;;9.40;;
65853;SDS011;52627;48.838;2.402;2023-10-09T07:42:35;19.10;;;8.90;;
65853;SDS011;52627;48.838;2.402;2023-10-09T07:45:09;16.10;;;8.60;;
65853;SDS011;52627;48.838;2.402;2023-10-09T07:47:48;17.00;;;8.70;;
65853;SDS011;52627;48.838;2.402;2023-10-09T07:50:38;15.30;;;8.40;;
65853;SDS011;52627;48.838;2.402;2023-10-09T07:53:24;17.70;;;8.50;;
65853;SDS011;52627;48.838;2.402;2023-10-09T07:55:56;18.10;;;9.10;;
65853;SDS011;52627;48.838;2.402;2023-10-09T07:58:40;18.00;;;8.70;;
65853;SDS011;52627;48.838;2.402;2023-10-09T08:01:17;19.80;;;9.40;;
65853;SDS011;52627;48.838;2.402;2023-10-09T08:04:05;18.40;;;9.40;;
65853;SDS011;52627;48.838;2.402;2023-10-09T08:06:39;19.80;;;9.40;;
65853;SDS011;52627;48.838;2.402;2023-10-09T08:09:09;21.40;;;9.80;;
65853;SDS011;52627;48.838;2.402;2023-10-09T08:11:49;19.80;;;9.20;;
65853;SDS011;52627;48.838;2.402;2023-10-09T08:14:36;18.20;;;9.80;;
65853;SDS011;52627;48.838;2.402;2023-10-09T08:17:03;17.80;;;9.30;;
65853;SDS011;52627;48.838;2.402;2023-10-09T08:19:49;24.50;;;10.60;;
65853;SDS011;52627;48.838;2.402;2023-10-09T08:22:25;20.30;;;10.20;;
65853;SDS011;52627;48.838;2.402;2023-10-09T08:24:53;18.70;;;9.20;;
65853;SDS011;52627;48.838;2.402;2023-10-09T08:27:30;18.50;;;9.70;;
65853;SDS011;52627;48.838;2.402;2023-10-09T08:30:05;16.10;;;8.90;;
65853;SDS011;52627;48.838;2.402;2023-10-09T08:32:59;16.40;;;8.70;;
65853;SDS011;52627;48.838;2.402;2023-10-09T08:35:37;20.10;;;10.10;;
65853;SDS011;52627;48.838;2.402;2023-10-09T08:38:17;17.00;;;9.40;;
65853;SDS011;52627;48.838;2.402;2023-10-09T08:40:51;18.40;;;8.80;;
65853;SDS011;52627;48.838;2.402;2023-10-09T08:43:26;15.30;;;9.30;;
65853;SDS011;52627;48.838;2.402;2023-10-09T08:46:00;18.80;;;8.90;;
65853;SDS011;52627;48.838;2.402;2023-10-09T08:48:31;22.80;;;10.70;;
65853;SDS011;52627;48.838;2.402;2023-10-09T08:51:00;17.40;;;9.00;;
65853;SDS011;52627;48.838;2.402;2023-10-09T08:53:33;15.90;;;9.90;;
65853;SDS011;52627;48.838;2.402;2023-10-09T08:56:01;24.30;;;11.40;;
65853;SDS011;52627;48.838;2.402;2023-10-09T08:58:31;19.80;;;9.80;;
65853;SDS011;52627;48.838;2.402;2023-10-09T09:01:04;17.60;;;10.00;;
65853;SDS011;52627;48.838;2.402;2023-10-09T09:03:40;19.80;;;10.40;;
65853;SDS011;52627;48.838;2.402;2023-10-09T09:06:08;17.50;;;10.00;;
65853;SDS011;52627;48.838;2.402;2023-10-09T09:08:35;18.30;;;9.70;;
65853;SDS011;52627;48.838;2.402;2023-10-09T09:11:07;22.30;;;10.40;;
65853;SDS011;52627;48.838;2.402;2023-10-09T09:13:41;19.10;;;10.00;;
65853;SDS011;52627;48.838;2.402;2023-10-09T09:16:24;17.50;;;9.60;;
65853;SDS011;52627;48.838;2.402;2023-10-09T09:19:03;17.90;;;9.80;;
65853;SDS011;52627;48.838;2.402;2023-10-09T09:21:33;15.90;;;9.10;;
65853;SDS011;52627;48.838;2.402;2023-10-09T09:24:12;21.50;;;9.90;;
65853;SDS011;52627;48.838;2.402;2023-10-09T09:26:50;17.60;;;8.50;;
65853;SDS011;52627;48.838;2.402;2023-10-09T09:32:09;21.60;;;9.30;;
65853;SDS011;52627;48.838;2.402;2023-10-09T09:34:53;19.40;;;9.00;;
65853;SDS011;52627;48.838;2.402;2023-10-09T09:37:33;18.00;;;8.20;;
65853;SDS011;52627;48.838;2.402;2023-10-09T09:40:11;20.50;;;8.10;;
65853;SDS011;52627;48.838;2.402;2023-10-09T09:43:02;15.60;;;7.70;;
65853;SDS011;52627;48.838;2.402;2023-10-09T09:45:38;15.20;;;7.90;;
65853;SDS011;52627;48.838;2.402;2023-10-09T09:48:13;17.40;;;8.20;;
65853;SDS011;52627;48.838;2.402;2023-10-09T09:50:43;19.10;;;8.60;;
65853;SDS011;52627;48.838;2.402;2023-10-09T09:55:54;20.10;;;8.40;;
65853;SDS011;52627;48.838;2.402;2023-10-09T09:58:27;17.10;;;8.60;;
65853;SDS011;52627;48.838;2.402;2023-10-09T10:01:12;27.90;;;9.60;;
65853;SDS011;52627;48.838;2.402;2023-10-09T10:04:12;18.90;;;8.10;;
65853;SDS011;52627;48.838;2.402;2023-10-09T10:06:48;18.30;;;7.80;;
65853;SDS011;52627;48.838;2.402;2023-10-09T10:09:39;20.20;;;9.70;;
65853;SDS011;52627;48.838;2.402;2023-10-09T10:12:09;16.70;;;9.00;;
65853;SDS011;52627;48.838;2.402;2023-10-09T10:15:04;16.80;;;8.30;;
65853;SDS011;52627;48.838;2.402;2023-10-09T10:20:30;17.10;;;8.50;;
65853;SDS011;52627;48.838;2.402;2023-10-09T10:23:15;18.50;;;9.30;;
65853;SDS011;52627;48.838;2.402;2023-10-09T10:25:48;15.40;;;8.00;;
65853;SDS011;52627;48.838;2.402;2023-10-09T10:28:23;16.80;;;8.50;;
65853;SDS011;52627;48.838;2.402;2023-10-09T10:31:10;18.40;;;7.50;;
65853;SDS011;52627;48.838;2.402;2023-10-09T10:34:04;15.00;;;7.30;;
65853;SDS011;52627;48.838;2.402;2023-10-09T10:36:34;13.70;;;7.00;;
65853;SDS011;52627;48.838;2.402;2023-10-09T10:39:04;16.20;;;7.30;;
65853;SDS011;52627;48.838;2.402;2023-10-09T10:41:58;11.80;;;6.70;;
65853;SDS011;52627;48.838;2.402;2023-10-09T10:44:30;15.10;;;6.40;;
65853;SDS011;52627;48.838;2.402;2023-10-09T10:47:08;18.60;;;6.40;;
65853;SDS011;52627;48.838;2.402;2023-10-09T10:49:54;13.90;;;6.00;;
65853;SDS011;52627;48.838;2.402;2023-10-09T10:52:48;12.50;;;6.00;;
65853;SDS011;52627;48.838;2.402;2023-10-09T10:55:24;18.20;;;6.10;;
65853;SDS011;52627;48.838;2.402;2023-10-09T10:57:58;14.80;;;7.00;;
65853;SDS011;52627;48.838;2.402;2023-10-09T11:00:38;15.30;;;6.20;;
65853;SDS011;52627;48.838;2.402;2023-10-09T11:03:25;14.80;;;6.30;;
65853;SDS011;52627;48.838;2.402;2023-10-09T11:06:29;18.80;;;5.50;;
65853;SDS011;52627;48.838;2.402;2023-10-09T11:09:06;15.40;;;5.50;;
65853;SDS011;52627;48.838;2.402;2023-10-09T11:11:50;12.40;;;5.70;;
65853;SDS011;52627;48.838;2.402;2023-10-09T11:14:45;10.60;;;5.40;;
65853;SDS011;52627;48.838;2.402;2023-10-09T11:17:32;11.90;;;5.10;;
65853;SDS011;52627;48.838;2.402;2023-10-09T11:20:04;13.40;;;5.20;;
65853;SDS011;52627;48.838;2.402;2023-10-09T11:22:53;11.30;;;5.50;;
65853;SDS011;52627;48.838;2.402;2023-10-09T11:25:50;13.80;;;6.00;;
65853;SDS011;52627;48.838;2.402;2023-10-09T11:28:19;14.50;;;4.70;;
65853;SDS011;52627;48.838;2.402;2023-10-09T11:31:08;8.50;;;4.30;;
65853;SDS011;52627;48.838;2.402;2023-10-09T11:33:50;8.90;;;3.70;;
65853;SDS011;52627;48.838;2.402;2023-10-09T11:36:19;10.10;;;4.00;;
65853;SDS011;52627;48.838;2.402;2023-10-09T11:39:01;7.70;;;3.20;;
65853;SDS011;52627;48.838;2.402;2023-10-09T11:41:46;9.80;;;3.50;;
65853;SDS011;52627;48.838;2.402;2023-10-09T11:47:00;8.50;;;3.60;;
65853;SDS011;52627;48.838;2.402;2023-10-09T11:49:51;9.10;;;3.40;;
65853;SDS011;52627;48.838;2.402;2023-10-09T11:52:30;7.60;;;3.50;;
65853;SDS011;52627;48.838;2.402;2023-10-09T11:55:23;10.20;;;3.80;;
65853;SDS011;52627;48.838;2.402;2023-10-09T11:57:52;11.30;;;3.80;;
65853;SDS011;52627;48.838;2.402;2023-10-09T12:00:20;12.50;;;3.80;;
65853;SDS011;52627;48.838;2.402;2023-10-09T12:02:56;11.10;;;4.30;;
65853;SDS011;52627;48.838;2.402;2023-10-09T12:05:32;12.70;;;3.60;;
65853;SDS011;52627;48.838;2.402;2023-10-09T12:08:02;9.40;;;3.50;;
65853;SDS011;52627;48.838;2.402;2023-10-09T12:10:36;10.50;;;4.00;;
65853;SDS011;52627;48.838;2.402;2023-10-09T12:13:06;9.90;;;3.70;;
65853;SDS011;52627;48.838;2.402;2023-10-09T12:15:34;10.00;;;4.50;;
65853;SDS011;52627;48.838;2.402;2023-10-09T12:18:08;10.20;;;3.80;;
65853;SDS011;52627;48.838;2.402;2023-10-09T12:20:46;10.90;;;4.40;;
65853;SDS011;52627;48.838;2.402;2023-10-09T12:23:21;11.60;;;3.90;;
65853;SDS011;52627;48.838;2.402;2023-10-09T12:25:50;8.60;;;3.90;;
65853;SDS011;52627;48.838;2.402;2023-10-09T12:28:18;10.90;;;4.10;;
65853;SDS011;52627;48.838;2.402;2023-10-09T12:30:48;10.60;;;4.00;;
65853;SDS011;52627;48.838;2.402;2023-10-09T12:33:20;12.20;;;4.40;;
65853;SDS011;52627;48.838;2.402;2023-10-09T12:35:58;11.10;;;4.40;;
65853;SDS011;52627;48.838;2.402;2023-10-09T12:38:29;9.50;;;4.10;;
65853;SDS011;52627;48.838;2.402;2023-10-09T12:41:06;12.50;;;4.90;;
65853;SDS011;52627;48.838;2.402;2023-10-09T12:43:55;20.40;;;4.70;;
65853;SDS011;52627;48.838;2.402;2023-10-09T12:46:25;10.70;;;4.70;;
65853;SDS011;52627;48.838;2.402;2023-10-09T12:48:53;11.60;;;4.80;;
65853;SDS011;52627;48.838;2.402;2023-10-09T12:51:22;10.20;;;4.60;;
65853;SDS011;52627;48.838;2.402;2023-10-09T12:53:57;9.40;;;4.20;;
65853;SDS011;52627;48.838;2.402;2023-10-09T12:56:26;12.80;;;4.70;;
65853;SDS011;52627;48.838;2.402;2023-10-09T12:59:00;15.50;;;4.80;;
65853;SDS011;52627;48.838;2.402;2023-10-09T13:01:29;16.20;;;5.00;;
65853;SDS011;52627;48.838;2.402;2023-10-09T13:03:59;11.40;;;4.40;;
65853;SDS011;52627;48.838;2.402;2023-10-09T13:06:27;12.20;;;4.30;;
65853;SDS011;52627;48.838;2.402;2023-10-09T13:08:54;11.00;;;4.50;;
65853;SDS011;52627;48.838;2.402;2023-10-09T13:11:27;9.90;;;4.60;;
65853;SDS011;52627;48.838;2.402;2023-10-09T13:13:55;11.10;;;4.50;;
65853;SDS011;52627;48.838;2.402;2023-10-09T13:16:23;10.80;;;4.30;;
65853;SDS011;52627;48.838;2.402;2023-10-09T13:18:53;9.40;;;4.70;;
65853;SDS011;52627;48.838;2.402;2023-10-09T13:21:23;10.80;;;4.50;;
65853;SDS011;52627;48.838;2.402;2023-10-09T13:23:54;9.30;;;4.80;;
65853;SDS011;52627;48.838;2.402;2023-10-09T13:26:22;10.60;;;4.40;;
65853;SDS011;52627;48.838;2.402;2023-10-09T13:29:03;9.90;;;4.10;;
65853;SDS011;52627;48.838;2.402;2023-10-09T13:31:31;11.30;;;4.70;;
65853;SDS011;52627;48.838;2.402;2023-10-09T13:36:31;10.60;;;4.40;;
65853;SDS011;52627;48.838;2.402;2023-10-09T13:39:08;17.10;;;5.00;;
65853;SDS011;52627;48.838;2.402;2023-10-09T13:42:02;10.50;;;3.80;;
65853;SDS011;52627;48.838;2.402;2023-10-09T13:44:34;11.90;;;3.80;;
65853;SDS011;52627;48.838;2.402;2023-10-09T13:47:04;10.70;;;4.20;;
65853;SDS011;52627;48.838;2.402;2023-10-09T13:49:47;10.10;;;4.30;;
65853;SDS011;52627;48.838;2.402;2023-10-09T13:52:19;13.60;;;4.10;;
65853;SDS011;52627;48.838;2.402;2023-10-09T13:54:49;12.00;;;4.80;;
65853;SDS011;52627;48.838;2.402;2023-10-09T13:57:17;12.30;;;4.30;;
65853;SDS011;52627;48.838;2.402;2023-10-09T13:59:49;12.70;;;4.20;;
65853;SDS011;52627;48.838;2.402;2023-10-09T14:02:17;9.50;;;4.20;;
65853;SDS011;52627;48.838;2.402;2023-10-09T14:04:46;8.80;;;4.20;;
65853;SDS011;52627;48.838;2.402;2023-10-09T14:07:15;11.60;;;4.30;;
65853;SDS011;52627;48.838;2.402;2023-10-09T14:09:48;12.10;;;4.60;;
65853;SDS011;52627;48.838;2.402;2023-10-09T14:12:21;9.00;;;4.40;;
65853;SDS011;52627;48.838;2.402;2023-10-09T14:14:50;9.50;;;3.90;;
65853;SDS011;52627;48.838;2.402;2023-10-09T14:17:23;15.20;;;4.10;;
65853;SDS011;52627;48.838;2.402;2023-10-09T14:19:52;10.30;;;4.10;;
65853;SDS011;52627;48.838;2.402;2023-10-09T14:22:23;10.00;;;3.80;;
65853;SDS011;52627;48.838;2.402;2023-10-09T14:24:55;9.30;;;4.30;;
65853;SDS011;52627;48.838;2.402;2023-10-09T14:27:24;8.60;;;4.20;;
65853;SDS011;52627;48.838;2.402;2023-10-09T14:29:55;8.90;;;4.00;;
65853;SDS011;52627;48.838;2.402;2023-10-09T14:32:24;8.60;;;3.80;;
65853;SDS011;52627;48.838;2.402;2023-10-09T14:35:11;9.60;;;4.20;;
65853;SDS011;52627;48.838;2.402;2023-10-09T14:37:42;10.20;;;4.10;;
65853;SDS011;52627;48.838;2.402;2023-10-09T14:40:09;9.30;;;4.00;;
65853;SDS011;52627;48.838;2.402;2023-10-09T14:42:40;12.40;;;4.10;;
65853;SDS011;52627;48.838;2.402;2023-10-09T14:45:12;10.30;;;4.10;;
65853;SDS011;52627;48.838;2.402;2023-10-09T14:47:45;11.40;;;4.00;;
65853;SDS011;52627;48.838;2.402;2023-10-09T14:50:14;17.20;;;4.50;;
65853;SDS011;52627;48.838;2.402;2023-10-09T14:52:41;9.10;;;3.80;;
65853;SDS011;52627;48.838;2.402;2023-10-09T14:55:09;10.90;;;4.00;;
65853;SDS011;52627;48.838;2.402;2023-10-09T14:57:37;11.40;;;3.70;;
65853;SDS011;52627;48.838;2.402;2023-10-09T15:00:05;8.50;;;3.90;;
65853;SDS011;52627;48.838;2.402;2023-10-09T15:02:41;10.20;;;3.90;;
65853;SDS011;52627;48.838;2.402;2023-10-09T15:05:08;8.70;;;4.10;;
65853;SDS011;52627;48.838;2.402;2023-10-09T15:07:39;11.20;;;3.80;;
65853;SDS011;52627;48.838;2.402;2023-10-09T15:10:12;10.40;;;4.30;;
65853;SDS011;52627;48.838;2.402;2023-10-09T15:15:10;9.60;;;4.10;;
65853;SDS011;52627;48.838;2.402;2023-10-09T15:17:42;8.70;;;3.20;;
65853;SDS011;52627;48.838;2.402;2023-10-09T15:20:16;10.90;;;4.50;;
65853;SDS011;52627;48.838;2.402;2023-10-09T15:22:45;11.20;;;4.40;;
65853;SDS011;52627;48.838;2.402;2023-10-09T15:25:13;12.20;;;4.80;;
65853;SDS011;52627;48.838;2.402;2023-10-09T15:27:44;9.00;;;4.10;;
65853;SDS011;52627;48.838;2.402;2023-10-09T15:30:12;9.30;;;4.30;;
65853;SDS011;52627;48.838;2.402;2023-10-09T15:32:44;9.60;;;4.10;;
65853;SDS011;52627;48.838;2.402;2023-10-09T15:35:12;9.00;;;4.50;;
65853;SDS011;52627;48.838;2.402;2023-10-09T15:37:42;9.90;;;4.30;;
65853;SDS011;52627;48.838;2.402;2023-10-09T15:40:10;10.10;;;3.80;;
65853;SDS011;52627;48.838;2.402;2023-10-09T15:42:46;9.60;;;3.80;;
65853;SDS011;52627;48.838;2.402;2023-10-09T15:45:18;11.10;;;5.90;;
65853;SDS011;52627;48.838;2.402;2023-10-09T15:47:50;9.30;;;4.10;;
65853;SDS011;52627;48.838;2.402;2023-10-09T15:50:21;9.20;;;4.00;;
65853;SDS011;52627;48.838;2.402;2023-10-09T15:52:52;9.70;;;4.10;;
65853;SDS011;52627;48.838;2.402;2023-10-09T15:55:21;12.30;;;3.80;;